createdAt,value
2018-11-14T00:00:28.891Z,97057.16
2018-11-14T00:03:03.817Z,97058.64
2018-11-14T00:05:38.761Z,97052.53
2018-11-14T00:08:13.149Z,97054.77
2018-11-14T00:10:47.886Z,97046.84
2018-11-14T00:13:22.252Z,97049.06
2018-11-14T00:15:56.555Z,97055.98
2018-11-14T00:18:31.029Z,97055.73
2018-11-14T00:21:06.200Z,97054.31
2018-11-14T00:23:40.548Z,97055.12
2018-11-14T00:26:14.877Z,97047.67
2018-11-14T00:28:50.052Z,97053.51
2018-11-14T00:31:25.388Z,97054.16
2018-11-14T00:33:59.940Z,97051.45
2018-11-14T00:36:34.480Z,97053.19
2018-11-14T00:39:11.168Z,97047.32
2018-11-14T00:41:46.078Z,97051.70
2018-11-14T00:44:20.608Z,97050.63
2018-11-14T00:46:55.092Z,97054.95
2018-11-14T00:49:29.409Z,97051.89
2018-11-14T00:52:04.325Z,97046.43
2018-11-14T00:54:39.584Z,97043.82
2018-11-14T00:57:14.250Z,97037.03
2018-11-14T00:59:49.135Z,97038.45
2018-11-14T01:02:23.784Z,97035.99
2018-11-14T01:04:58.788Z,97034.56
2018-11-14T01:07:33.136Z,97030.42
2018-11-14T01:10:09.116Z,97027.38
2018-11-14T01:12:44.260Z,97031.00
2018-11-14T01:15:21.239Z,97024.31
2018-11-14T01:17:55.953Z,97018.45
2018-11-14T01:20:30.918Z,97024.53
2018-11-14T01:23:06.432Z,97022.06
2018-11-14T01:25:40.821Z,97031.36
2018-11-14T01:28:15.473Z,97033.03
2018-11-14T01:30:50.103Z,97030.36
2018-11-14T01:33:25.142Z,97030.75
2018-11-14T01:35:59.610Z,97023.93
2018-11-14T01:38:34.049Z,97030.97
2018-11-14T01:41:08.753Z,97026.25
2018-11-14T01:43:43.996Z,97028.10
2018-11-14T01:46:18.721Z,97022.70
2018-11-14T01:48:53.220Z,97018.31
2018-11-14T01:51:27.501Z,97023.31
2018-11-14T01:54:02.256Z,97016.73
2018-11-14T01:56:37.090Z,97017.09
2018-11-14T01:59:11.805Z,97006.37
2018-11-14T02:01:46.539Z,97007.86
2018-11-14T02:04:21.003Z,97008.53
2018-11-14T02:06:55.830Z,97002.83
2018-11-14T02:09:30.284Z,97009.41
2018-11-14T02:12:06.645Z,97002.72
2018-11-14T02:14:41.793Z,97008.79
2018-11-14T02:17:16.664Z,97009.72
2018-11-14T02:19:51.713Z,97007.66
2018-11-14T02:22:26.004Z,97004.34
2018-11-14T02:25:00.949Z,97005.59
2018-11-14T02:27:35.677Z,97001.48
2018-11-14T02:30:15.436Z,96999.83
2018-11-14T02:32:50.363Z,96999.83
2018-11-14T02:35:25.371Z,96995.62
2018-11-14T02:37:59.991Z,97005.25
2018-11-14T02:40:35.081Z,96995.62
2018-11-14T02:43:10.541Z,96995.26
2018-11-14T02:45:45.604Z,96995.62
2018-11-14T02:48:20.097Z,96994.90
2018-11-14T02:51:05.659Z,96993.79
2018-11-14T02:53:40.544Z,96998.65
2018-11-14T02:56:15.253Z,96995.74
2018-11-14T02:58:49.571Z,96990.01
2018-11-14T03:01:23.848Z,96998.90
2018-11-14T03:03:58.388Z,96997.19
2018-11-14T03:06:33.268Z,96994.15
2018-11-14T03:09:08.988Z,96987.34
2018-11-14T03:11:43.910Z,96987.19
2018-11-14T03:14:18.533Z,96990.78
2018-11-14T03:16:52.800Z,96989.49
2018-11-14T03:19:27.121Z,96995.86
2018-11-14T03:22:01.772Z,96991.36
2018-11-14T03:24:36.119Z,96989.09
2018-11-14T03:27:10.748Z,96986.98
2018-11-14T03:29:45.760Z,96987.95
2018-11-14T03:32:20.552Z,96986.48
2018-11-14T03:34:55.425Z,96986.69
2018-11-14T03:37:30.192Z,96987.70
2018-11-14T03:40:05.513Z,96990.17
2018-11-14T03:42:40.348Z,96993.73
2018-11-14T03:45:15.769Z,96994.48
2018-11-14T03:47:50.149Z,96994.48
2018-11-14T03:50:24.419Z,96994.59
2018-11-14T03:52:58.873Z,96993.77
2018-11-14T03:55:33.605Z,96996.34
2018-11-14T03:58:08.045Z,96996.80
2018-11-14T04:00:42.963Z,96997.83
2018-11-14T04:03:17.909Z,96995.26
2018-11-14T04:05:52.536Z,96995.92
2018-11-14T04:08:29.034Z,96992.53
2018-11-14T04:11:06.922Z,96991.08
2018-11-14T04:13:42.751Z,96987.69
2018-11-14T04:16:17.322Z,96990.52
2018-11-14T04:18:52.513Z,96995.39
2018-11-14T04:21:26.921Z,96991.28
2018-11-14T04:24:01.428Z,96992.66
2018-11-14T04:26:35.941Z,96990.95
2018-11-14T04:29:10.632Z,96995.52
2018-11-14T04:31:45.421Z,96991.67
2018-11-14T04:34:20.237Z,96993.34
2018-11-14T04:36:55.013Z,96989.30
2018-11-14T04:39:29.781Z,96988.65
2018-11-14T04:42:05.377Z,96985.72
2018-11-14T04:44:40.113Z,96979.56
2018-11-14T04:47:15.325Z,96973.81
2018-11-14T04:49:49.665Z,96973.71
2018-11-14T04:52:24.332Z,96975.55
2018-11-14T04:54:58.617Z,96975.81
2018-11-14T04:57:32.928Z,96978.13
2018-11-14T05:00:08.108Z,96974.27
2018-11-14T05:02:43.733Z,96969.40
2018-11-14T05:05:19.593Z,96974.80
2018-11-14T05:07:54.005Z,96971.61
2018-11-14T05:10:28.419Z,96976.67
2018-11-14T05:13:03.633Z,96980.35
2018-11-14T05:15:38.205Z,96978.15
2018-11-14T05:18:12.878Z,96980.52
2018-11-14T05:20:47.905Z,96973.38
2018-11-14T05:23:22.515Z,96980.54
2018-11-14T05:25:57.337Z,96977.16
2018-11-14T05:28:31.792Z,96968.54
2018-11-14T05:31:06.113Z,96976.03
2018-11-14T05:33:40.511Z,96982.64
2018-11-14T05:36:14.857Z,96977.88
2018-11-14T05:38:49.456Z,96980.34
2018-11-14T05:41:24.197Z,96980.70
2018-11-14T05:43:59.130Z,96978.34
2018-11-14T05:46:34.622Z,96974.85
2018-11-14T05:49:09.725Z,96971.27
2018-11-14T05:51:44.308Z,96970.09
2018-11-14T05:54:18.808Z,96973.93
2018-11-14T05:56:53.314Z,96976.77
2018-11-14T05:59:27.863Z,96975.28
2018-11-14T06:02:02.969Z,96972.56
2018-11-14T06:04:38.265Z,96971.53
2018-11-14T06:07:12.813Z,96967.76
2018-11-14T06:09:47.438Z,96966.18
2018-11-14T06:12:22.084Z,96963.25
2018-11-14T06:14:56.474Z,96966.70
2018-11-14T06:17:30.867Z,96967.98
2018-11-14T06:20:05.221Z,96963.58
2018-11-14T06:22:40.021Z,96961.77
2018-11-14T06:25:18.792Z,96960.80
2018-11-14T06:27:54.040Z,96968.75
2018-11-14T06:30:29.137Z,96969.99
2018-11-14T06:33:04.649Z,96970.08
2018-11-14T06:35:39.297Z,96965.77
2018-11-14T06:38:14.065Z,96973.38
2018-11-14T06:40:48.737Z,96977.59
2018-11-14T06:43:23.396Z,96974.09
2018-11-14T06:45:57.826Z,96977.53
2018-11-14T06:48:32.401Z,96967.34
2018-11-14T06:51:07.871Z,96976.50
2018-11-14T06:53:42.576Z,96976.55
2018-11-14T06:56:16.988Z,96966.41
2018-11-14T06:58:52.559Z,96971.09
2018-11-14T07:01:27.703Z,96967.55
2018-11-14T07:04:04.621Z,96970.33
2018-11-14T07:06:39.502Z,96968.37
2018-11-14T07:09:14.280Z,96963.34
2018-11-14T07:11:48.974Z,96962.05
2018-11-14T07:14:23.860Z,96967.03
2018-11-14T07:16:58.404Z,96963.78
2018-11-14T07:19:32.836Z,96957.75
2018-11-14T07:22:07.601Z,96956.78
2018-11-14T07:24:42.171Z,96957.91
2018-11-14T07:27:16.797Z,96955.53
2018-11-14T07:29:51.172Z,96955.82
2018-11-14T07:32:25.497Z,96956.11
2018-11-14T07:34:59.968Z,96955.45
2018-11-14T07:37:34.711Z,96956.08
2018-11-14T07:40:12.021Z,96953.73
2018-11-14T07:42:46.385Z,96948.84
2018-11-14T07:45:21.213Z,96951.66
2018-11-14T07:47:55.901Z,96949.44
2018-11-14T07:50:30.237Z,96945.80
2018-11-14T07:53:07.062Z,96957.52
2018-11-14T07:55:42.014Z,96962.33
2018-11-14T07:58:16.784Z,96967.02
2018-11-14T08:00:52.852Z,96965.52
2018-11-14T08:03:27.463Z,96964.92
2018-11-14T08:06:02.480Z,96961.41
2018-11-14T08:08:37.124Z,96959.53
2018-11-14T08:11:11.916Z,96961.06
2018-11-14T08:13:48.331Z,96961.02
2018-11-14T08:16:22.979Z,96959.52
2018-11-14T08:18:58.128Z,96949.05
2018-11-14T08:21:32.816Z,96949.27
2018-11-14T08:24:07.281Z,96948.18
2018-11-14T08:26:42.048Z,96942.20
2018-11-14T08:29:16.769Z,96949.97
2018-11-14T08:31:51.364Z,96956.66
2018-11-14T08:34:25.820Z,96958.99
2018-11-14T08:37:00.418Z,96951.80
2018-11-14T08:39:34.993Z,96948.12
2018-11-14T08:42:09.509Z,96955.84
2018-11-14T08:44:43.992Z,96945.77
2018-11-14T08:47:18.385Z,96945.16
2018-11-14T08:49:53.196Z,96944.17
2018-11-14T08:52:27.692Z,96934.77
2018-11-14T08:55:02.540Z,96944.13
2018-11-14T08:57:38.057Z,96940.77
2018-11-14T09:00:23.492Z,96941.80
2018-11-14T09:02:58.118Z,96939.20
2018-11-14T09:05:32.912Z,96944.33
2018-11-14T09:08:07.657Z,96937.41
2018-11-14T09:10:42.088Z,96936.09
2018-11-14T09:13:17.407Z,96934.17
2018-11-14T09:15:52.808Z,96932.52
2018-11-14T09:18:27.581Z,96930.58
2018-11-14T09:21:02.204Z,96919.95
2018-11-14T09:23:36.500Z,96912.55
2018-11-14T09:26:10.805Z,96907.44
2018-11-14T09:28:45.417Z,96910.30
2018-11-14T09:31:20.269Z,96904.34
2018-11-14T09:33:55.041Z,96897.12
2018-11-14T09:36:29.530Z,96894.84
2018-11-14T09:39:04.565Z,96900.25
2018-11-14T09:41:39.121Z,96905.11
2018-11-14T09:44:13.690Z,96903.33
2018-11-14T09:46:48.765Z,96896.58
2018-11-14T09:49:23.097Z,96891.53
2018-11-14T09:51:57.768Z,96887.71
2018-11-14T09:54:32.361Z,96882.41
2018-11-14T09:57:07.314Z,96874.98
2018-11-14T09:59:42.389Z,96874.41
2018-11-14T10:02:17.224Z,96869.91
2018-11-14T10:04:51.936Z,96867.25
2018-11-14T10:07:26.702Z,96863.41
2018-11-14T10:10:01.188Z,96859.57
2018-11-14T10:12:36.016Z,96857.17
2018-11-14T10:15:13.540Z,96850.68
2018-11-14T10:17:48.524Z,96861.14
2018-11-14T10:20:25.694Z,96852.45
2018-11-14T10:23:00.785Z,96861.37
2018-11-14T10:25:35.064Z,96863.22
2018-11-14T10:28:09.405Z,96853.84
2018-11-14T10:30:43.686Z,96858.66
2018-11-14T10:33:17.950Z,96865.16
2018-11-14T10:35:52.452Z,96859.38
2018-11-14T10:38:27.607Z,96860.01
2018-11-14T10:41:02.094Z,96854.08
2018-11-14T10:43:36.657Z,96854.86
2018-11-14T10:46:11.339Z,96849.22
2018-11-14T10:48:45.713Z,96841.78
2018-11-14T10:51:20.412Z,96842.79
2018-11-14T10:53:55.029Z,96829.77
2018-11-14T10:56:29.857Z,96824.42
2018-11-14T10:59:04.489Z,96832.92
2018-11-14T11:01:44.436Z,96826.80
2018-11-14T11:04:24.461Z,96828.84
2018-11-14T11:07:03.951Z,96833.36
2018-11-14T11:09:44.029Z,96832.95
2018-11-14T11:12:24.188Z,96835.08
2018-11-14T11:15:04.569Z,96829.80
2018-11-14T11:17:44.718Z,96820.72
2018-11-14T11:20:19.744Z,96816.30
2018-11-14T11:22:56.217Z,96823.20
2018-11-14T11:25:30.976Z,96832.44
2018-11-14T11:28:05.689Z,96843.64
2018-11-14T11:30:40.575Z,96846.89
2018-11-14T11:33:15.168Z,96831.24
2018-11-14T11:35:49.589Z,96833.69
2018-11-14T11:38:24.419Z,96828.45
2018-11-14T11:40:59.631Z,96820.80
2018-11-14T11:43:34.121Z,96824.35
2018-11-14T11:46:08.914Z,96825.95
2018-11-14T11:48:43.447Z,96829.41
2018-11-14T11:51:18.208Z,96829.95
2018-11-14T11:53:52.756Z,96820.75
2018-11-14T11:56:27.724Z,96816.67
2018-11-14T11:59:02.548Z,96823.88
2018-11-14T12:01:37.639Z,96814.85
2018-11-14T12:04:12.349Z,96809.99
2018-11-14T12:06:47.199Z,96811.62
2018-11-14T12:09:21.682Z,96808.02
2018-11-14T12:11:56.650Z,96808.03
2018-11-14T12:14:31.819Z,96800.56
2018-11-14T12:17:06.409Z,96804.03
2018-11-14T12:19:41.661Z,96799.28
2018-11-14T12:22:16.514Z,96799.58
2018-11-14T12:24:51.288Z,96798.63
2018-11-14T12:27:26.187Z,96792.36
2018-11-14T12:30:01.032Z,96788.55
2018-11-14T12:32:35.752Z,96794.42
2018-11-14T12:35:11.530Z,96788.97
2018-11-14T12:37:46.509Z,96793.33
2018-11-14T12:40:21.171Z,96793.39
2018-11-14T12:42:55.956Z,96786.95
2018-11-14T12:45:30.409Z,96789.63
2018-11-14T12:48:05.716Z,96789.45
2018-11-14T12:50:40.921Z,96787.66
2018-11-14T12:53:15.560Z,96791.67
2018-11-14T12:55:50.117Z,96793.84
2018-11-14T12:58:24.845Z,96790.14
2018-11-14T13:00:59.244Z,96793.55
2018-11-14T13:03:33.718Z,96784.47
2018-11-14T13:06:08.224Z,96781.56
2018-11-14T13:08:42.930Z,96774.59
2018-11-14T13:11:17.352Z,96775.71
2018-11-14T13:13:51.812Z,96773.45
2018-11-14T13:16:26.677Z,96765.45
2018-11-14T13:19:01.172Z,96768.96
2018-11-14T13:21:36.216Z,96765.36
2018-11-14T13:24:11.021Z,96767.37
2018-11-14T13:26:45.485Z,96767.28
2018-11-14T13:29:20.760Z,96766.58
2018-11-14T13:31:55.061Z,96760.38
2018-11-14T13:34:29.859Z,96763.73
2018-11-14T13:37:04.652Z,96767.33
2018-11-14T13:39:39.336Z,96762.80
2018-11-14T13:42:14.245Z,96759.02
2018-11-14T13:44:49.009Z,96758.77
2018-11-14T13:47:23.960Z,96760.34
2018-11-14T13:49:58.608Z,96760.19
2018-11-14T13:52:33.941Z,96752.00
2018-11-14T13:55:12.061Z,96754.75
2018-11-14T13:57:47.946Z,96755.86
2018-11-14T14:00:23.322Z,96761.00
2018-11-14T14:02:57.848Z,96762.94
2018-11-14T14:05:32.229Z,96758.66
2018-11-14T14:08:06.891Z,96761.50
2018-11-14T14:10:42.020Z,96761.40
2018-11-14T14:13:16.458Z,96765.69
2018-11-14T14:15:51.837Z,96779.19
2018-11-14T14:18:26.311Z,96781.46
2018-11-14T14:21:00.632Z,96784.24
2018-11-14T14:23:35.977Z,96781.46
2018-11-14T14:26:10.680Z,96779.15
2018-11-14T14:28:45.369Z,96778.81
2018-11-14T14:31:19.792Z,96776.00
2018-11-14T14:33:54.210Z,96776.13
2018-11-14T14:36:28.476Z,96768.70
2018-11-14T14:39:02.780Z,96770.69
2018-11-14T14:41:37.245Z,96764.97
2018-11-14T14:44:12.010Z,96768.18
2018-11-14T14:46:46.473Z,96769.34
2018-11-14T14:49:20.812Z,96765.17
2018-11-14T14:51:55.229Z,96762.56
2018-11-14T14:54:30.253Z,96761.34
2018-11-14T14:57:05.662Z,96760.67
2018-11-14T14:59:40.605Z,96758.88
2018-11-14T15:02:14.901Z,96760.45
2018-11-14T15:04:49.556Z,96757.95
2018-11-14T15:07:24.401Z,96771.15
2018-11-14T15:09:58.696Z,96768.16
2018-11-14T15:12:33.706Z,96764.13
2018-11-14T15:15:31.460Z,96760.39
2018-11-14T15:18:06.627Z,96765.95
2018-11-14T15:20:41.377Z,96760.61
2018-11-14T15:23:18.476Z,96768.91
2018-11-14T15:25:53.017Z,96767.83
2018-11-14T15:28:27.887Z,96774.73
2018-11-14T15:31:03.073Z,96774.02
2018-11-14T15:33:37.404Z,96766.12
2018-11-14T15:36:12.260Z,96765.41
2018-11-14T15:38:47.037Z,96765.54
2018-11-14T15:41:21.934Z,96766.42
2018-11-14T15:43:56.273Z,96769.14
2018-11-14T15:46:30.735Z,96764.95
2018-11-14T15:49:10.986Z,96765.88
2018-11-14T15:51:46.246Z,96769.28
2018-11-14T15:54:21.287Z,96773.98
2018-11-14T15:56:56.426Z,96768.87
2018-11-14T15:59:40.089Z,96771.26
2018-11-14T16:02:16.335Z,96766.69
2018-11-14T16:04:51.086Z,96772.98
2018-11-14T16:07:25.658Z,96764.75
2018-11-14T16:10:00.822Z,96766.86
2018-11-14T16:12:37.462Z,96772.76
2018-11-14T16:15:14.653Z,96771.01
2018-11-14T16:17:49.636Z,96771.75
2018-11-14T16:20:25.498Z,96776.45
2018-11-14T16:22:59.868Z,96772.39
2018-11-14T16:25:35.431Z,96775.42
2018-11-14T16:28:09.970Z,96773.20
2018-11-14T16:30:44.716Z,96769.50
2018-11-14T16:33:19.206Z,96773.34
2018-11-14T16:35:54.160Z,96768.64
2018-11-14T16:38:28.703Z,96770.88
2018-11-14T16:41:03.224Z,96769.33
2018-11-14T16:43:37.715Z,96770.81
2018-11-14T16:46:12.949Z,96766.93
2018-11-14T16:48:47.517Z,96766.64
2018-11-14T16:51:22.330Z,96764.05
2018-11-14T16:53:57.113Z,96759.38
2018-11-14T16:56:32.363Z,96754.00
2018-11-14T16:59:08.266Z,96742.16
2018-11-14T17:01:43.957Z,96742.50
2018-11-14T17:04:18.741Z,96733.84
2018-11-14T17:06:53.521Z,96739.99
2018-11-14T17:09:28.159Z,96737.06
2018-11-14T17:12:02.896Z,96732.58
2018-11-14T17:14:38.104Z,96729.02
2018-11-14T17:17:13.337Z,96736.11
2018-11-14T17:19:48.045Z,96741.62
2018-11-14T17:22:22.857Z,96740.12
2018-11-14T17:24:58.606Z,96745.84
2018-11-14T17:27:33.081Z,96747.81
2018-11-14T17:30:10.344Z,96751.28
2018-11-14T17:32:45.483Z,96746.18
2018-11-14T17:35:20.105Z,96746.92
2018-11-14T17:37:54.425Z,96743.92
2018-11-14T17:40:29.449Z,96744.66
2018-11-14T17:43:04.021Z,96741.33
2018-11-14T17:45:38.995Z,96745.77
2018-11-14T17:48:13.373Z,96743.94
2018-11-14T17:50:48.527Z,96738.73
2018-11-14T17:53:23.790Z,96750.99
2018-11-14T17:55:58.614Z,96743.43
2018-11-14T17:58:33.110Z,96744.75
2018-11-14T18:01:08.348Z,96748.63
2018-11-14T18:03:43.529Z,96742.06
2018-11-14T18:06:18.260Z,96742.41
2018-11-14T18:08:54.393Z,96745.95
2018-11-14T18:11:28.881Z,96748.47
2018-11-14T18:14:03.765Z,96747.78
2018-11-14T18:16:39.289Z,96746.49
2018-11-14T18:19:13.641Z,96746.02
2018-11-14T18:21:48.388Z,96746.30
2018-11-14T18:24:23.511Z,96741.53
2018-11-14T18:26:58.429Z,96732.27
2018-11-14T18:29:33.598Z,96740.16
2018-11-14T18:32:08.319Z,96733.83
2018-11-14T18:34:42.646Z,96737.98
2018-11-14T18:37:17.417Z,96738.87
2018-11-14T18:39:52.275Z,96734.45
2018-11-14T18:42:27.354Z,96739.41
2018-11-14T18:45:01.835Z,96733.90
2018-11-14T18:47:36.482Z,96735.53
2018-11-14T18:50:12.560Z,96736.69
2018-11-14T18:52:48.205Z,96741.05
2018-11-14T18:55:25.716Z,96742.69
2018-11-14T18:58:01.762Z,96744.45
2018-11-14T19:00:36.586Z,96744.53
2018-11-14T19:03:11.072Z,96752.42
2018-11-14T19:05:46.213Z,96758.68
2018-11-14T19:08:20.905Z,96752.49
2018-11-14T19:10:56.011Z,96749.46
2018-11-14T19:13:30.897Z,96746.63
2018-11-14T19:16:06.488Z,96747.47
2018-11-14T19:18:46.769Z,96746.31
2018-11-14T19:21:21.472Z,96744.89
2018-11-14T19:23:56.116Z,96750.84
2018-11-14T19:26:30.486Z,96747.52
2018-11-14T19:29:05.577Z,96752.75
2018-11-14T19:31:39.908Z,96751.28
2018-11-14T19:34:14.760Z,96749.17
2018-11-14T19:36:51.857Z,96749.56
2018-11-14T19:39:28.608Z,96749.94
2018-11-14T19:42:10.959Z,96753.27
2018-11-14T19:44:47.084Z,96754.77
2018-11-14T19:47:31.227Z,96752.42
2018-11-14T19:50:13.759Z,96750.55
2018-11-14T19:52:52.012Z,96751.16
2018-11-14T19:55:28.613Z,96744.19
2018-11-14T19:58:06.043Z,96755.95
2018-11-14T20:00:45.574Z,96752.29
2018-11-14T20:03:21.341Z,96755.98
2018-11-14T20:05:58.099Z,96744.77
2018-11-14T20:08:33.843Z,96746.93
2018-11-14T20:11:08.431Z,96751.97
2018-11-14T20:13:42.859Z,96741.36
2018-11-14T20:16:17.585Z,96736.52
2018-11-14T20:18:52.160Z,96734.53
2018-11-14T20:21:27.055Z,96742.45
2018-11-14T20:24:01.729Z,96746.91
2018-11-14T20:26:36.589Z,96737.86
2018-11-14T20:29:11.465Z,96738.56
2018-11-14T20:31:46.116Z,96735.14
2018-11-14T20:34:20.851Z,96732.79
2018-11-14T20:36:56.282Z,96738.89
2018-11-14T20:39:31.013Z,96736.17
2018-11-14T20:42:10.509Z,96736.30
2018-11-14T20:44:45.258Z,96725.75
2018-11-14T20:47:19.806Z,96727.94
2018-11-14T20:49:54.252Z,96719.44
2018-11-14T20:52:29.459Z,96723.51
2018-11-14T20:55:04.844Z,96715.02
2018-11-14T20:57:40.652Z,96715.83
2018-11-14T21:00:21.696Z,96713.72
2018-11-14T21:02:57.795Z,96714.19
2018-11-14T21:05:33.098Z,96713.38
2018-11-14T21:08:08.414Z,96707.80
2018-11-14T21:10:42.882Z,96710.13
2018-11-14T21:13:17.746Z,96705.77
2018-11-14T21:15:52.667Z,96709.35
2018-11-14T21:18:26.953Z,96710.52
2018-11-14T21:21:01.948Z,96713.05
2018-11-14T21:23:36.898Z,96710.19
2018-11-14T21:26:11.838Z,96706.78
2018-11-14T21:28:46.133Z,96710.64
2018-11-14T21:31:20.987Z,96710.39
2018-11-14T21:33:55.724Z,96708.41
2018-11-14T21:36:30.409Z,96714.95
2018-11-14T21:39:08.461Z,96710.13
2018-11-14T21:41:44.025Z,96708.02
2018-11-14T21:44:18.505Z,96704.27
2018-11-14T21:46:52.971Z,96705.14
2018-11-14T21:49:29.438Z,96705.97
2018-11-14T21:52:03.853Z,96706.94
2018-11-14T21:54:38.417Z,96707.25
2018-11-14T21:57:13.028Z,96706.47
2018-11-14T21:59:47.690Z,96701.09
2018-11-14T22:02:22.724Z,96704.12
2018-11-14T22:04:57.613Z,96701.53
2018-11-14T22:07:31.928Z,96705.89
2018-11-14T22:10:09.168Z,96705.30
2018-11-14T22:12:44.141Z,96705.17
2018-11-14T22:15:20.092Z,96695.23
2018-11-14T22:17:54.432Z,96700.25
2018-11-14T22:20:29.561Z,96692.97
2018-11-14T22:23:04.921Z,96702.30
2018-11-14T22:25:39.800Z,96695.02
2018-11-14T22:28:15.562Z,96697.47
2018-11-14T22:30:50.371Z,96692.38
2018-11-14T22:33:24.680Z,96694.48
2018-11-14T22:36:03.900Z,96686.16
2018-11-14T22:38:38.525Z,96681.88
2018-11-14T22:41:12.996Z,96685.36
2018-11-14T22:43:47.396Z,96679.06
2018-11-14T22:46:21.705Z,96677.30
2018-11-14T22:48:57.684Z,96673.45
2018-11-14T22:51:32.064Z,96676.52
2018-11-14T22:54:06.533Z,96674.88
2018-11-14T22:56:41.429Z,96668.41
2018-11-14T22:59:15.807Z,96664.26
2018-11-14T23:01:50.277Z,96661.59
2018-11-14T23:04:24.767Z,96660.03
2018-11-14T23:06:59.480Z,96665.55
2018-11-14T23:09:34.284Z,96662.48
2018-11-14T23:12:08.819Z,96659.97
2018-11-14T23:14:43.097Z,96657.52
2018-11-14T23:17:17.924Z,96661.44
2018-11-14T23:19:52.205Z,96659.74
2018-11-14T23:22:26.633Z,96656.91
2018-11-14T23:25:00.902Z,96657.94
2018-11-14T23:27:35.221Z,96654.73
2018-11-14T23:30:12.324Z,96655.07
2018-11-14T23:32:48.155Z,96653.58
2018-11-14T23:35:27.167Z,96647.05
2018-11-14T23:38:06.116Z,96650.31
2018-11-14T23:40:41.201Z,96642.75
2018-11-14T23:43:15.640Z,96640.78
2018-11-14T23:45:50.188Z,96643.03
2018-11-14T23:48:24.888Z,96636.43
2018-11-14T23:51:00.830Z,96634.90
2018-11-14T23:53:35.876Z,96634.69
2018-11-14T23:56:11.132Z,96635.98
2018-11-14T23:58:45.592Z,96622.45
